Reno, NV (89501)

7:51 PM PDT on April 25, 2015 (GMT -0700)
UNR Campus, LMR Roof | | Change Station
CLOSE
Current Station
Personal Weather Station
Location: Reno, NV
Elevation: 4570 ft
Nearby Weather Stations

Elev 4570 ft 39.54 °N, 119.81 °W | Updated 3 seconds ago

Mostly Cloudy
Mostly Cloudy
49.6 °F
Feels Like 48 °F
N
4.2
Wind Variable Wind from WNW
Gusts 0.0 mph

Today
High -- | Low -- °F
--% Chance of Precip.
Yesterday
High -- | Low -- °F
Precip. -- in
6:08 AM 7:46 PM
Waxing Crescent, 51% visible
Pressure 29.86 in
Visibility 10.0 miles
Clouds Scattered Clouds 6500 ft
Mostly Cloudy 9000 ft
Mostly Cloudy 16000 ft
Mostly Cloudy 21000 ft
Windchill 48 °F
Dew Point 29 °F
Humidity 44%
Rainfall 0.09 in
Snow Depth Not available.
UV 0 out of 12
Pollen 4.00 out of 12
Air Quality Not available.
Flu Activity Sporadic
METAR KRNO 260155Z 33014KT 10SM SCT065 BKN090 BKN160 BKN210 11/M03 A2990 RMK AO2 SLP109 SH DSNT SW T01111033

More Conditions Fewer Conditions

Pressure 29.86 in
Visibility 10.0 miles
Clouds Scattered Clouds 6500 ft
Mostly Cloudy 9000 ft
Mostly Cloudy 16000 ft
Mostly Cloudy 21000 ft
Windchill 48 °F
Dew Point 29 °F
Humidity 44%
Rainfall 0.09 in
Snow Depth Not available.
UV 0 out of 12
Pollen 4.00 out of 12
Air Quality Not available.
Flu Activity Sporadic
METAR KRNO 260155Z 33014KT 10SM SCT065 BKN090 BKN160 BKN210 11/M03 A2990 RMK AO2 SLP109 SH DSNT SW T01111033

More Conditions Fewer Conditions

10-Day Weather Forecast

Almanac

Astronomy

Apr. 25, 2015 Rise Set
Actual Time
Civil Twilight
Nautical Twilight
Astronomical Twilight
Moon
Length of Visible Light
Length of Day
Tomorrow will be .
, % of the Moon is Illuminated

Today's Extremes

State Highs State Lows

Community

WunderPhotos

Upload Photos

1,816,909 photos uploaded!

WunderBlogs® & News

Nearby

Air Quality

  Air Quality AQ Index Pollutant
Not available.

Snow Depth

Station Depth Elevation

Earthquake Activity

City Distance Mag. Time & Date
Minimum magnitude displayed is 2.5.

Coastal Water Temperatures

Place Temperature

Stations

Nearby Weather Stations

Station Location Temp. Windchill Dew Point Humidity Wind Precip. Elev Updated Type